sensor_id;sensor_type;location;lat;lon;timestamp;P1;durP1;ratioP1;P2;durP2;ratioP2
18376;SDS011;9315;52.624;13.544;2022-09-09T00:02:20;21.63;;;13.90;;
18376;SDS011;9315;52.624;13.544;2022-09-09T00:05:00;29.53;;;16.27;;
18376;SDS011;9315;52.624;13.544;2022-09-09T00:08:07;26.93;;;17.17;;
18376;SDS011;9315;52.624;13.544;2022-09-09T00:10:41;21.80;;;15.13;;
18376;SDS011;9315;52.624;13.544;2022-09-09T00:13:14;28.97;;;16.83;;
18376;SDS011;9315;52.624;13.544;2022-09-09T00:15:55;36.53;;;19.80;;
18376;SDS011;9315;52.624;13.544;2022-09-09T00:19:02;31.23;;;17.97;;
18376;SDS011;9315;52.624;13.544;2022-09-09T00:21:56;25.50;;;15.57;;
18376;SDS011;9315;52.624;13.544;2022-09-09T00:24:47;11.97;;;10.10;;
18376;SDS011;9315;52.624;13.544;2022-09-09T00:27:27;15.23;;;10.63;;
18376;SDS011;9315;52.624;13.544;2022-09-09T00:30:14;23.10;;;15.47;;
18376;SDS011;9315;52.624;13.544;2022-09-09T00:32:58;19.53;;;12.30;;
18376;SDS011;9315;52.624;13.544;2022-09-09T00:35:39;39.67;;;20.67;;
18376;SDS011;9315;52.624;13.544;2022-09-09T00:44:32;40.00;;;19.80;;
18376;SDS011;9315;52.624;13.544;2022-09-09T00:47:12;36.70;;;19.37;;
18376;SDS011;9315;52.624;13.544;2022-09-09T00:56:25;24.50;;;15.97;;
18376;SDS011;9315;52.624;13.544;2022-09-09T00:59:42;19.07;;;13.80;;
18376;SDS011;9315;52.624;13.544;2022-09-09T01:02:35;29.00;;;17.60;;
18376;SDS011;9315;52.624;13.544;2022-09-09T01:05:25;54.37;;;25.07;;
18376;SDS011;9315;52.624;13.544;2022-09-09T01:08:42;27.60;;;16.53;;
18376;SDS011;9315;52.624;13.544;2022-09-09T01:11:45;38.73;;;21.23;;
18376;SDS011;9315;52.624;13.544;2022-09-09T01:17:24;29.00;;;17.97;;
18376;SDS011;9315;52.624;13.544;2022-09-09T01:23:10;20.83;;;14.87;;
18376;SDS011;9315;52.624;13.544;2022-09-09T01:28:56;18.70;;;13.97;;
18376;SDS011;9315;52.624;13.544;2022-09-09T01:31:27;23.07;;;15.90;;
18376;SDS011;9315;52.624;13.544;2022-09-09T01:34:10;27.97;;;19.00;;
18376;SDS011;9315;52.624;13.544;2022-09-09T01:36:49;9.97;;;8.83;;
18376;SDS011;9315;52.624;13.544;2022-09-09T01:39:33;22.47;;;15.93;;
18376;SDS011;9315;52.624;13.544;2022-09-09T01:42:03;17.20;;;13.77;;
18376;SDS011;9315;52.624;13.544;2022-09-09T01:44:35;10.17;;;8.33;;
18376;SDS011;9315;52.624;13.544;2022-09-09T01:47:04;8.27;;;7.40;;
18376;SDS011;9315;52.624;13.544;2022-09-09T01:49:32;7.30;;;6.43;;
18376;SDS011;9315;52.624;13.544;2022-09-09T01:51:59;9.00;;;6.50;;
18376;SDS011;9315;52.624;13.544;2022-09-09T01:54:27;13.60;;;6.83;;
18376;SDS011;9315;52.624;13.544;2022-09-09T01:59:58;13.07;;;10.63;;
18376;SDS011;9315;52.624;13.544;2022-09-09T02:05:57;14.13;;;10.60;;
18376;SDS011;9315;52.624;13.544;2022-09-09T02:08:53;18.93;;;12.37;;
18376;SDS011;9315;52.624;13.544;2022-09-09T02:11:24;10.73;;;6.97;;
18376;SDS011;9315;52.624;13.544;2022-09-09T02:14:00;18.97;;;13.27;;
18376;SDS011;9315;52.624;13.544;2022-09-09T02:16:40;28.07;;;15.33;;
18376;SDS011;9315;52.624;13.544;2022-09-09T02:19:19;12.70;;;9.87;;
18376;SDS011;9315;52.624;13.544;2022-09-09T02:21:54;14.80;;;11.50;;
18376;SDS011;9315;52.624;13.544;2022-09-09T02:24:24;12.10;;;9.00;;
18376;SDS011;9315;52.624;13.544;2022-09-09T02:26:55;10.23;;;7.63;;
18376;SDS011;9315;52.624;13.544;2022-09-09T02:29:29;10.57;;;8.07;;
18376;SDS011;9315;52.624;13.544;2022-09-09T02:32:03;45.23;;;10.40;;
18376;SDS011;9315;52.624;13.544;2022-09-09T02:34:35;29.07;;;12.43;;
18376;SDS011;9315;52.624;13.544;2022-09-09T02:37:10;6.43;;;5.57;;
18376;SDS011;9315;52.624;13.544;2022-09-09T02:39:40;14.73;;;10.60;;
18376;SDS011;9315;52.624;13.544;2022-09-09T02:42:07;9.80;;;7.07;;
18376;SDS011;9315;52.624;13.544;2022-09-09T02:44:34;9.93;;;7.77;;
18376;SDS011;9315;52.624;13.544;2022-09-09T02:47:29;6.93;;;6.10;;
18376;SDS011;9315;52.624;13.544;2022-09-09T02:50:39;10.67;;;8.80;;
18376;SDS011;9315;52.624;13.544;2022-09-09T02:53:24;11.53;;;8.53;;
18376;SDS011;9315;52.624;13.544;2022-09-09T02:56:14;9.97;;;7.47;;
18376;SDS011;9315;52.624;13.544;2022-09-09T02:58:46;9.03;;;6.50;;
18376;SDS011;9315;52.624;13.544;2022-09-09T03:01:15;8.27;;;6.83;;
18376;SDS011;9315;52.624;13.544;2022-09-09T03:03:43;12.43;;;9.50;;
18376;SDS011;9315;52.624;13.544;2022-09-09T03:06:10;17.37;;;11.47;;
18376;SDS011;9315;52.624;13.544;2022-09-09T03:08:37;14.80;;;10.97;;
18376;SDS011;9315;52.624;13.544;2022-09-09T03:11:04;4.97;;;4.50;;
18376;SDS011;9315;52.624;13.544;2022-09-09T03:13:32;14.67;;;10.57;;
18376;SDS011;9315;52.624;13.544;2022-09-09T03:15:59;5.57;;;5.03;;
18376;SDS011;9315;52.624;13.544;2022-09-09T03:18:26;6.90;;;5.70;;
18376;SDS011;9315;52.624;13.544;2022-09-09T03:20:54;13.87;;;9.40;;
18376;SDS011;9315;52.624;13.544;2022-09-09T03:23:21;9.20;;;7.20;;
18376;SDS011;9315;52.624;13.544;2022-09-09T03:25:49;13.33;;;8.23;;
18376;SDS011;9315;52.624;13.544;2022-09-09T03:28:17;10.10;;;7.40;;
18376;SDS011;9315;52.624;13.544;2022-09-09T03:30:44;19.70;;;12.90;;
18376;SDS011;9315;52.624;13.544;2022-09-09T03:33:11;7.63;;;6.27;;
18376;SDS011;9315;52.624;13.544;2022-09-09T03:35:38;20.57;;;11.93;;
18376;SDS011;9315;52.624;13.544;2022-09-09T03:38:12;10.43;;;7.93;;
18376;SDS011;9315;52.624;13.544;2022-09-09T03:40:39;11.07;;;8.00;;
18376;SDS011;9315;52.624;13.544;2022-09-09T03:43:14;9.23;;;7.57;;
18376;SDS011;9315;52.624;13.544;2022-09-09T03:45:45;6.03;;;5.40;;
18376;SDS011;9315;52.624;13.544;2022-09-09T03:48:16;15.83;;;10.47;;
18376;SDS011;9315;52.624;13.544;2022-09-09T03:50:46;10.20;;;8.63;;
18376;SDS011;9315;52.624;13.544;2022-09-09T03:53:17;12.77;;;7.90;;
18376;SDS011;9315;52.624;13.544;2022-09-09T03:55:51;22.20;;;13.73;;
18376;SDS011;9315;52.624;13.544;2022-09-09T03:58:22;21.20;;;12.77;;
18376;SDS011;9315;52.624;13.544;2022-09-09T04:00:53;23.90;;;13.20;;
18376;SDS011;9315;52.624;13.544;2022-09-09T04:03:26;24.67;;;13.57;;
18376;SDS011;9315;52.624;13.544;2022-09-09T04:05:55;21.50;;;13.30;;
18376;SDS011;9315;52.624;13.544;2022-09-09T04:08:25;18.20;;;12.37;;
18376;SDS011;9315;52.624;13.544;2022-09-09T04:10:53;13.13;;;9.23;;
18376;SDS011;9315;52.624;13.544;2022-09-09T04:13:24;46.27;;;23.37;;
18376;SDS011;9315;52.624;13.544;2022-09-09T04:15:53;14.57;;;9.27;;
18376;SDS011;9315;52.624;13.544;2022-09-09T04:18:26;14.93;;;10.53;;
18376;SDS011;9315;52.624;13.544;2022-09-09T04:20:56;9.83;;;5.63;;
18376;SDS011;9315;52.624;13.544;2022-09-09T04:23:24;13.17;;;8.67;;
18376;SDS011;9315;52.624;13.544;2022-09-09T04:25:56;6.40;;;4.70;;
18376;SDS011;9315;52.624;13.544;2022-09-09T04:28:26;13.10;;;9.53;;
18376;SDS011;9315;52.624;13.544;2022-09-09T04:30:56;21.93;;;11.93;;
18376;SDS011;9315;52.624;13.544;2022-09-09T04:33:29;12.03;;;8.33;;
18376;SDS011;9315;52.624;13.544;2022-09-09T04:36:03;15.00;;;10.43;;
18376;SDS011;9315;52.624;13.544;2022-09-09T04:38:31;21.37;;;13.27;;
18376;SDS011;9315;52.624;13.544;2022-09-09T04:40:58;19.73;;;12.07;;
18376;SDS011;9315;52.624;13.544;2022-09-09T04:43:25;18.03;;;11.37;;
18376;SDS011;9315;52.624;13.544;2022-09-09T04:45:52;15.20;;;9.17;;
18376;SDS011;9315;52.624;13.544;2022-09-09T04:48:20;13.23;;;10.33;;
18376;SDS011;9315;52.624;13.544;2022-09-09T04:51:21;22.93;;;11.47;;
18376;SDS011;9315;52.624;13.544;2022-09-09T04:53:40;21.73;;;11.73;;
18376;SDS011;9315;52.624;13.544;2022-09-09T04:56:08;15.57;;;10.70;;
18376;SDS011;9315;52.624;13.544;2022-09-09T04:58:40;13.33;;;9.27;;
18376;SDS011;9315;52.624;13.544;2022-09-09T05:01:12;20.27;;;11.73;;
18376;SDS011;9315;52.624;13.544;2022-09-09T05:03:44;15.07;;;9.43;;
18376;SDS011;9315;52.624;13.544;2022-09-09T05:06:12;12.70;;;8.60;;
18376;SDS011;9315;52.624;13.544;2022-09-09T05:08:43;14.13;;;9.80;;
18376;SDS011;9315;52.624;13.544;2022-09-09T05:11:24;17.33;;;10.67;;
18376;SDS011;9315;52.624;13.544;2022-09-09T05:13:55;16.20;;;8.63;;
18376;SDS011;9315;52.624;13.544;2022-09-09T05:16:23;18.60;;;10.40;;
18376;SDS011;9315;52.624;13.544;2022-09-09T05:18:50;9.93;;;7.60;;
18376;SDS011;9315;52.624;13.544;2022-09-09T05:21:17;12.87;;;8.80;;
18376;SDS011;9315;52.624;13.544;2022-09-09T05:23:47;13.40;;;9.20;;
18376;SDS011;9315;52.624;13.544;2022-09-09T05:26:15;12.33;;;9.43;;
18376;SDS011;9315;52.624;13.544;2022-09-09T05:28:46;15.67;;;9.70;;
18376;SDS011;9315;52.624;13.544;2022-09-09T05:31:14;11.57;;;8.80;;
18376;SDS011;9315;52.624;13.544;2022-09-09T05:33:44;12.27;;;8.63;;
18376;SDS011;9315;52.624;13.544;2022-09-09T05:36:15;13.10;;;7.50;;
18376;SDS011;9315;52.624;13.544;2022-09-09T05:38:47;12.47;;;7.80;;
18376;SDS011;9315;52.624;13.544;2022-09-09T05:41:16;14.43;;;7.73;;
18376;SDS011;9315;52.624;13.544;2022-09-09T05:43:43;19.67;;;7.53;;
18376;SDS011;9315;52.624;13.544;2022-09-09T05:46:19;25.33;;;8.13;;
18376;SDS011;9315;52.624;13.544;2022-09-09T05:48:50;6.17;;;5.40;;
18376;SDS011;9315;52.624;13.544;2022-09-09T05:51:20;8.10;;;5.70;;
18376;SDS011;9315;52.624;13.544;2022-09-09T05:53:56;8.60;;;6.70;;
18376;SDS011;9315;52.624;13.544;2022-09-09T05:56:27;7.83;;;6.00;;
18376;SDS011;9315;52.624;13.544;2022-09-09T05:58:55;10.00;;;6.73;;
18376;SDS011;9315;52.624;13.544;2022-09-09T06:01:24;6.00;;;5.30;;
18376;SDS011;9315;52.624;13.544;2022-09-09T06:04:00;7.07;;;5.40;;
18376;SDS011;9315;52.624;13.544;2022-09-09T06:06:33;12.57;;;5.47;;
18376;SDS011;9315;52.624;13.544;2022-09-09T06:09:08;10.20;;;5.50;;
18376;SDS011;9315;52.624;13.544;2022-09-09T06:11:37;13.30;;;5.37;;
18376;SDS011;9315;52.624;13.544;2022-09-09T06:14:06;12.87;;;5.97;;
18376;SDS011;9315;52.624;13.544;2022-09-09T06:16:34;12.73;;;6.07;;
18376;SDS011;9315;52.624;13.544;2022-09-09T06:19:05;12.70;;;5.90;;
18376;SDS011;9315;52.624;13.544;2022-09-09T06:21:33;6.27;;;5.10;;
18376;SDS011;9315;52.624;13.544;2022-09-09T06:24:03;8.20;;;5.30;;
18376;SDS011;9315;52.624;13.544;2022-09-09T06:26:37;8.50;;;4.90;;
18376;SDS011;9315;52.624;13.544;2022-09-09T06:29:15;9.23;;;5.80;;
18376;SDS011;9315;52.624;13.544;2022-09-09T06:31:42;9.53;;;5.67;;
18376;SDS011;9315;52.624;13.544;2022-09-09T06:34:25;8.77;;;5.10;;
18376;SDS011;9315;52.624;13.544;2022-09-09T06:37:11;12.00;;;5.60;;
18376;SDS011;9315;52.624;13.544;2022-09-09T06:39:38;10.00;;;5.43;;
18376;SDS011;9315;52.624;13.544;2022-09-09T06:42:05;9.60;;;5.47;;
18376;SDS011;9315;52.624;13.544;2022-09-09T06:44:35;10.10;;;5.30;;
18376;SDS011;9315;52.624;13.544;2022-09-09T06:47:02;10.47;;;5.33;;
18376;SDS011;9315;52.624;13.544;2022-09-09T06:49:29;7.00;;;4.67;;
18376;SDS011;9315;52.624;13.544;2022-09-09T06:51:56;7.50;;;4.93;;
18376;SDS011;9315;52.624;13.544;2022-09-09T06:54:27;6.57;;;3.90;;
18376;SDS011;9315;52.624;13.544;2022-09-09T06:56:54;10.00;;;3.70;;
18376;SDS011;9315;52.624;13.544;2022-09-09T06:59:22;9.63;;;2.97;;
18376;SDS011;9315;52.624;13.544;2022-09-09T07:01:49;5.73;;;3.70;;
18376;SDS011;9315;52.624;13.544;2022-09-09T07:04:28;7.93;;;4.20;;
18376;SDS011;9315;52.624;13.544;2022-09-09T07:06:55;10.77;;;4.47;;
18376;SDS011;9315;52.624;13.544;2022-09-09T07:09:22;9.37;;;4.53;;
18376;SDS011;9315;52.624;13.544;2022-09-09T07:11:53;9.73;;;4.20;;
18376;SDS011;9315;52.624;13.544;2022-09-09T07:14:20;9.93;;;3.47;;
18376;SDS011;9315;52.624;13.544;2022-09-09T07:16:48;5.20;;;3.90;;
18376;SDS011;9315;52.624;13.544;2022-09-09T07:19:15;13.07;;;4.30;;
18376;SDS011;9315;52.624;13.544;2022-09-09T07:21:52;9.23;;;3.20;;
18376;SDS011;9315;52.624;13.544;2022-09-09T07:24:25;6.90;;;3.50;;
18376;SDS011;9315;52.624;13.544;2022-09-09T07:26:56;8.57;;;3.93;;
18376;SDS011;9315;52.624;13.544;2022-09-09T07:29:23;11.50;;;3.60;;
18376;SDS011;9315;52.624;13.544;2022-09-09T07:31:50;5.77;;;2.60;;
18376;SDS011;9315;52.624;13.544;2022-09-09T07:34:17;6.63;;;2.60;;
18376;SDS011;9315;52.624;13.544;2022-09-09T07:36:45;6.00;;;2.57;;
18376;SDS011;9315;52.624;13.544;2022-09-09T07:39:15;9.67;;;2.60;;
18376;SDS011;9315;52.624;13.544;2022-09-09T07:41:45;3.73;;;2.27;;
18376;SDS011;9315;52.624;13.544;2022-09-09T07:44:15;6.63;;;2.57;;
18376;SDS011;9315;52.624;13.544;2022-09-09T07:46:49;14.27;;;2.40;;
18376;SDS011;9315;52.624;13.544;2022-09-09T07:49:16;5.40;;;2.50;;
18376;SDS011;9315;52.624;13.544;2022-09-09T07:51:52;7.13;;;2.75;;
18376;SDS011;9315;52.624;13.544;2022-09-09T07:54:20;4.68;;;1.90;;
18376;SDS011;9315;52.624;13.544;2022-09-09T07:56:50;4.82;;;2.40;;
18376;SDS011;9315;52.624;13.544;2022-09-09T07:59:18;5.43;;;2.05;;
18376;SDS011;9315;52.624;13.544;2022-09-09T08:01:47;7.37;;;2.23;;
18376;SDS011;9315;52.624;13.544;2022-09-09T08:04:20;4.15;;;1.95;;
18376;SDS011;9315;52.624;13.544;2022-09-09T08:06:52;5.38;;;2.15;;
18376;SDS011;9315;52.624;13.544;2022-09-09T08:09:24;3.20;;;1.77;;
18376;SDS011;9315;52.624;13.544;2022-09-09T08:11:57;7.03;;;2.20;;
18376;SDS011;9315;52.624;13.544;2022-09-09T08:14:26;3.63;;;1.95;;
18376;SDS011;9315;52.624;13.544;2022-09-09T08:16:53;10.10;;;2.00;;
18376;SDS011;9315;52.624;13.544;2022-09-09T08:19:24;7.82;;;1.70;;
18376;SDS011;9315;52.624;13.544;2022-09-09T08:22:02;7.07;;;1.75;;
18376;SDS011;9315;52.624;13.544;2022-09-09T08:24:29;4.75;;;1.67;;
18376;SDS011;9315;52.624;13.544;2022-09-09T08:26:57;8.55;;;1.95;;
18376;SDS011;9315;52.624;13.544;2022-09-09T08:29:24;5.05;;;1.95;;
18376;SDS011;9315;52.624;13.544;2022-09-09T08:31:52;7.55;;;2.15;;
18376;SDS011;9315;52.624;13.544;2022-09-09T08:34:23;9.40;;;2.28;;
18376;SDS011;9315;52.624;13.544;2022-09-09T08:36:53;5.10;;;1.60;;
18376;SDS011;9315;52.624;13.544;2022-09-09T08:39:21;5.45;;;1.85;;
18376;SDS011;9315;52.624;13.544;2022-09-09T08:41:52;6.18;;;1.58;;
18376;SDS011;9315;52.624;13.544;2022-09-09T08:48:13;6.28;;;1.50;;
18376;SDS011;9315;52.624;13.544;2022-09-09T08:50:35;7.20;;;1.65;;
18376;SDS011;9315;52.624;13.544;2022-09-09T08:53:17;2.90;;;1.40;;
18376;SDS011;9315;52.624;13.544;2022-09-09T08:55:58;16.40;;;2.50;;
18376;SDS011;9315;52.624;13.544;2022-09-09T08:58:33;9.95;;;2.10;;
18376;SDS011;9315;52.624;13.544;2022-09-09T09:07:32;7.25;;;2.15;;
18376;SDS011;9315;52.624;13.544;2022-09-09T09:10:25;6.50;;;1.30;;
18376;SDS011;9315;52.624;13.544;2022-09-09T09:13:29;3.78;;;1.60;;
18376;SDS011;9315;52.624;13.544;2022-09-09T09:16:20;8.02;;;1.75;;
18376;SDS011;9315;52.624;13.544;2022-09-09T09:18:58;5.45;;;1.38;;
18376;SDS011;9315;52.624;13.544;2022-09-09T09:23:59;6.53;;;1.70;;
18376;SDS011;9315;52.624;13.544;2022-09-09T09:26:31;4.78;;;1.70;;
18376;SDS011;9315;52.624;13.544;2022-09-09T09:29:15;5.97;;;1.55;;
18376;SDS011;9315;52.624;13.544;2022-09-09T09:31:47;5.70;;;1.20;;
18376;SDS011;9315;52.624;13.544;2022-09-09T09:34:20;6.30;;;1.33;;
18376;SDS011;9315;52.624;13.544;2022-09-09T09:36:54;4.40;;;1.30;;
18376;SDS011;9315;52.624;13.544;2022-09-09T09:39:29;4.45;;;1.50;;
18376;SDS011;9315;52.624;13.544;2022-09-09T09:42:24;7.50;;;1.55;;
18376;SDS011;9315;52.624;13.544;2022-09-09T09:44:51;5.07;;;1.40;;
18376;SDS011;9315;52.624;13.544;2022-09-09T09:47:20;4.90;;;1.70;;
18376;SDS011;9315;52.624;13.544;2022-09-09T09:49:57;7.13;;;1.40;;
18376;SDS011;9315;52.624;13.544;2022-09-09T09:52:28;4.82;;;1.52;;
18376;SDS011;9315;52.624;13.544;2022-09-09T09:54:58;6.88;;;1.73;;
18376;SDS011;9315;52.624;13.544;2022-09-09T09:57:33;7.43;;;1.58;;
18376;SDS011;9315;52.624;13.544;2022-09-09T10:00:01;6.13;;;1.73;;
18376;SDS011;9315;52.624;13.544;2022-09-09T10:02:49;3.90;;;1.08;;
18376;SDS011;9315;52.624;13.544;2022-09-09T10:05:23;6.07;;;1.50;;
18376;SDS011;9315;52.624;13.544;2022-09-09T10:08:05;6.40;;;1.48;;
18376;SDS011;9315;52.624;13.544;2022-09-09T10:13:28;5.50;;;1.15;;
18376;SDS011;9315;52.624;13.544;2022-09-09T10:23:09;5.15;;;1.45;;
18376;SDS011;9315;52.624;13.544;2022-09-09T10:26:15;4.35;;;1.30;;
18376;SDS011;9315;52.624;13.544;2022-09-09T10:29:01;3.80;;;1.00;;
18376;SDS011;9315;52.624;13.544;2022-09-09T10:35:12;5.93;;;1.10;;
18376;SDS011;9315;52.624;13.544;2022-09-09T10:43:29;6.80;;;1.17;;
18376;SDS011;9315;52.624;13.544;2022-09-09T10:46:50;4.03;;;1.17;;
18376;SDS011;9315;52.624;13.544;2022-09-09T10:52:37;7.47;;;1.13;;
18376;SDS011;9315;52.624;13.544;2022-09-09T10:55:43;2.25;;;1.05;;
18376;SDS011;9315;52.624;13.544;2022-09-09T10:58:40;8.40;;;1.30;;
18376;SDS011;9315;52.624;13.544;2022-09-09T11:01:34;7.60;;;1.10;;
18376;SDS011;9315;52.624;13.544;2022-09-09T11:04:31;7.75;;;1.17;;
18376;SDS011;9315;52.624;13.544;2022-09-09T11:07:12;12.05;;;1.35;;
18376;SDS011;9315;52.624;13.544;2022-09-09T11:10:23;3.42;;;0.73;;
18376;SDS011;9315;52.624;13.544;2022-09-09T11:19:09;8.02;;;1.20;;
18376;SDS011;9315;52.624;13.544;2022-09-09T11:22:50;8.13;;;1.00;;
18376;SDS011;9315;52.624;13.544;2022-09-09T11:25:44;4.55;;;1.33;;
18376;SDS011;9315;52.624;13.544;2022-09-09T11:38:13;5.32;;;0.85;;
18376;SDS011;9315;52.624;13.544;2022-09-09T11:40:53;3.17;;;0.75;;
18376;SDS011;9315;52.624;13.544;2022-09-09T11:46:19;7.13;;;0.70;;
18376;SDS011;9315;52.624;13.544;2022-09-09T11:49:03;7.57;;;1.00;;
18376;SDS011;9315;52.624;13.544;2022-09-09T11:51:33;2.33;;;0.70;;
18376;SDS011;9315;52.624;13.544;2022-09-09T11:56:59;3.25;;;1.20;;
18376;SDS011;9315;52.624;13.544;2022-09-09T11:59:29;2.33;;;0.70;;
18376;SDS011;9315;52.624;13.544;2022-09-09T12:02:02;8.40;;;0.88;;
18376;SDS011;9315;52.624;13.544;2022-09-09T12:04:49;2.58;;;0.80;;
18376;SDS011;9315;52.624;13.544;2022-09-09T12:07:39;9.52;;;0.93;;
18376;SDS011;9315;52.624;13.544;2022-09-09T12:10:27;6.25;;;1.15;;
18376;SDS011;9315;52.624;13.544;2022-09-09T12:15:58;4.15;;;1.10;;
18376;SDS011;9315;52.624;13.544;2022-09-09T12:18:33;6.00;;;0.75;;
18376;SDS011;9315;52.624;13.544;2022-09-09T12:24:11;2.58;;;0.82;;
18376;SDS011;9315;52.624;13.544;2022-09-09T12:26:59;3.80;;;1.15;;
18376;SDS011;9315;52.624;13.544;2022-09-09T12:29:50;2.90;;;0.50;;
18376;SDS011;9315;52.624;13.544;2022-09-09T12:32:35;7.03;;;0.90;;
18376;SDS011;9315;52.624;13.544;2022-09-09T12:35:09;2.88;;;0.68;;
18376;SDS011;9315;52.624;13.544;2022-09-09T12:38:01;3.25;;;0.63;;
18376;SDS011;9315;52.624;13.544;2022-09-09T12:40:33;5.53;;;1.27;;
18376;SDS011;9315;52.624;13.544;2022-09-09T12:43:18;4.15;;;0.60;;
18376;SDS011;9315;52.624;13.544;2022-09-09T12:45:48;5.32;;;1.08;;
18376;SDS011;9315;52.624;13.544;2022-09-09T12:48:28;4.65;;;0.77;;
18376;SDS011;9315;52.624;13.544;2022-09-09T12:51:18;4.65;;;0.73;;
18376;SDS011;9315;52.624;13.544;2022-09-09T12:53:58;2.22;;;0.60;;
18376;SDS011;9315;52.624;13.544;2022-09-09T12:56:27;3.03;;;0.70;;
18376;SDS011;9315;52.624;13.544;2022-09-09T12:58:58;5.43;;;0.80;;
18376;SDS011;9315;52.624;13.544;2022-09-09T13:01:28;3.42;;;0.55;;
18376;SDS011;9315;52.624;13.544;2022-09-09T13:03:59;5.45;;;0.80;;
18376;SDS011;9315;52.624;13.544;2022-09-09T13:06:28;3.13;;;0.32;;
18376;SDS011;9315;52.624;13.544;2022-09-09T13:08:58;2.25;;;0.57;;
18376;SDS011;9315;52.624;13.544;2022-09-09T13:11:35;4.65;;;0.88;;
18376;SDS011;9315;52.624;13.544;2022-09-09T13:14:16;2.85;;;0.55;;
18376;SDS011;9315;52.624;13.544;2022-09-09T13:16:56;3.47;;;0.85;;
18376;SDS011;9315;52.624;13.544;2022-09-09T13:19:31;3.97;;;0.70;;
18376;SDS011;9315;52.624;13.544;2022-09-09T13:22:39;1.98;;;0.50;;
18376;SDS011;9315;52.624;13.544;2022-09-09T13:27:41;3.13;;;0.73;;
18376;SDS011;9315;52.624;13.544;2022-09-09T13:30:23;3.40;;;0.47;;
18376;SDS011;9315;52.624;13.544;2022-09-09T13:35:48;3.13;;;0.60;;
18376;SDS011;9315;52.624;13.544;2022-09-09T13:38:25;4.78;;;0.45;;
18376;SDS011;9315;52.624;13.544;2022-09-09T13:40:58;5.50;;;0.73;;
18376;SDS011;9315;52.624;13.544;2022-09-09T13:43:34;3.05;;;0.80;;
18376;SDS011;9315;52.624;13.544;2022-09-09T13:51:40;2.28;;;0.40;;
18376;SDS011;9315;52.624;13.544;2022-09-09T13:54:18;2.83;;;0.80;;
18376;SDS011;9315;52.624;13.544;2022-09-09T13:56:48;3.40;;;0.60;;
18376;SDS011;9315;52.624;13.544;2022-09-09T13:59:17;3.60;;;0.50;;
18376;SDS011;9315;52.624;13.544;2022-09-09T14:02:03;4.22;;;0.60;;
18376;SDS011;9315;52.624;13.544;2022-09-09T14:04:30;3.22;;;0.60;;
18376;SDS011;9315;52.624;13.544;2022-09-09T14:06:57;3.22;;;0.60;;
18376;SDS011;9315;52.624;13.544;2022-09-09T14:09:25;2.45;;;0.75;;
18376;SDS011;9315;52.624;13.544;2022-09-09T14:11:52;2.00;;;0.68;;
18376;SDS011;9315;52.624;13.544;2022-09-09T14:14:21;2.35;;;0.82;;
18376;SDS011;9315;52.624;13.544;2022-09-09T14:16:48;1.10;;;0.47;;
18376;SDS011;9315;52.624;13.544;2022-09-09T14:19:15;1.83;;;0.52;;
18376;SDS011;9315;52.624;13.544;2022-09-09T14:21:47;3.20;;;0.60;;
18376;SDS011;9315;52.624;13.544;2022-09-09T14:24:19;2.78;;;0.50;;
18376;SDS011;9315;52.624;13.544;2022-09-09T14:26:46;2.78;;;0.60;;
18376;SDS011;9315;52.624;13.544;2022-09-09T14:29:14;4.22;;;0.60;;
18376;SDS011;9315;52.624;13.544;2022-09-09T14:31:41;2.08;;;0.50;;
18376;SDS011;9315;52.624;13.544;2022-09-09T14:34:11;3.15;;;0.50;;
18376;SDS011;9315;52.624;13.544;2022-09-09T14:36:40;3.58;;;0.60;;
18376;SDS011;9315;52.624;13.544;2022-09-09T14:39:07;4.38;;;0.60;;
18376;SDS011;9315;52.624;13.544;2022-09-09T14:41:34;4.40;;;0.68;;
18376;SDS011;9315;52.624;13.544;2022-09-09T14:44:04;2.20;;;0.60;;
18376;SDS011;9315;52.624;13.544;2022-09-09T14:46:31;5.75;;;0.75;;
18376;SDS011;9315;52.624;13.544;2022-09-09T14:48:59;5.78;;;0.70;;
18376;SDS011;9315;52.624;13.544;2022-09-09T14:51:26;2.70;;;0.60;;
18376;SDS011;9315;52.624;13.544;2022-09-09T14:53:55;2.20;;;0.60;;
18376;SDS011;9315;52.624;13.544;2022-09-09T14:56:26;8.63;;;0.60;;
18376;SDS011;9315;52.624;13.544;2022-09-09T14:58:57;3.13;;;0.60;;
18376;SDS011;9315;52.624;13.544;2022-09-09T15:01:34;4.70;;;1.10;;
18376;SDS011;9315;52.624;13.544;2022-09-09T15:04:03;2.95;;;0.65;;
18376;SDS011;9315;52.624;13.544;2022-09-09T15:06:40;3.63;;;0.73;;
18376;SDS011;9315;52.624;13.544;2022-09-09T15:09:10;3.60;;;1.00;;
18376;SDS011;9315;52.624;13.544;2022-09-09T15:11:37;4.78;;;0.80;;
18376;SDS011;9315;52.624;13.544;2022-09-09T15:14:05;3.35;;;0.68;;
18376;SDS011;9315;52.624;13.544;2022-09-09T15:16:36;3.00;;;0.50;;
18376;SDS011;9315;52.624;13.544;2022-09-09T15:19:05;3.33;;;0.80;;
18376;SDS011;9315;52.624;13.544;2022-09-09T15:21:34;0.93;;;0.40;;
18376;SDS011;9315;52.624;13.544;2022-09-09T15:24:04;4.88;;;0.60;;
18376;SDS011;9315;52.624;13.544;2022-09-09T15:26:34;1.58;;;0.60;;
18376;SDS011;9315;52.624;13.544;2022-09-09T15:29:04;2.33;;;0.63;;
18376;SDS011;9315;52.624;13.544;2022-09-09T15:31:33;3.92;;;0.82;;
18376;SDS011;9315;52.624;13.544;2022-09-09T15:34:02;3.22;;;0.70;;
18376;SDS011;9315;52.624;13.544;2022-09-09T15:39:05;4.07;;;0.57;;
18376;SDS011;9315;52.624;13.544;2022-09-09T15:41:39;3.53;;;0.60;;
18376;SDS011;9315;52.624;13.544;2022-09-09T15:44:06;4.80;;;0.70;;
18376;SDS011;9315;52.624;13.544;2022-09-09T15:46:44;4.78;;;0.50;;
18376;SDS011;9315;52.624;13.544;2022-09-09T15:49:18;1.80;;;0.70;;
18376;SDS011;9315;52.624;13.544;2022-09-09T15:51:53;2.95;;;0.65;;
18376;SDS011;9315;52.624;13.544;2022-09-09T15:54:31;4.20;;;0.75;;
18376;SDS011;9315;52.624;13.544;2022-09-09T15:57:02;2.63;;;0.70;;
18376;SDS011;9315;52.624;13.544;2022-09-09T15:59:32;3.38;;;0.50;;
18376;SDS011;9315;52.624;13.544;2022-09-09T16:02:00;3.42;;;0.57;;
18376;SDS011;9315;52.624;13.544;2022-09-09T16:04:28;3.72;;;0.52;;
18376;SDS011;9315;52.624;13.544;2022-09-09T16:06:57;2.47;;;0.60;;
18376;SDS011;9315;52.624;13.544;2022-09-09T16:09:31;3.15;;;0.70;;
18376;SDS011;9315;52.624;13.544;2022-09-09T16:11:59;2.70;;;0.70;;
18376;SDS011;9315;52.624;13.544;2022-09-09T16:14:32;2.50;;;0.55;;
18376;SDS011;9315;52.624;13.544;2022-09-09T16:17:02;3.20;;;0.50;;
18376;SDS011;9315;52.624;13.544;2022-09-09T16:19:31;4.20;;;0.68;;
18376;SDS011;9315;52.624;13.544;2022-09-09T16:22:00;3.88;;;0.88;;
18376;SDS011;9315;52.624;13.544;2022-09-09T16:24:28;1.92;;;0.50;;
18376;SDS011;9315;52.624;13.544;2022-09-09T16:26:55;2.95;;;0.65;;
18376;SDS011;9315;52.624;13.544;2022-09-09T16:29:23;5.30;;;0.73;;
18376;SDS011;9315;52.624;13.544;2022-09-09T16:31:53;7.40;;;0.80;;
18376;SDS011;9315;52.624;13.544;2022-09-09T16:34:27;4.47;;;0.70;;
18376;SDS011;9315;52.624;13.544;2022-09-09T16:36:54;3.28;;;0.70;;
18376;SDS011;9315;52.624;13.544;2022-09-09T16:39:22;3.50;;;0.80;;
18376;SDS011;9315;52.624;13.544;2022-09-09T16:41:49;2.78;;;0.80;;
18376;SDS011;9315;52.624;13.544;2022-09-09T16:44:17;5.25;;;0.90;;
18376;SDS011;9315;52.624;13.544;2022-09-09T16:46:46;5.05;;;1.15;;
18376;SDS011;9315;52.624;13.544;2022-09-09T16:49:23;5.38;;;0.70;;
18376;SDS011;9315;52.624;13.544;2022-09-09T16:51:50;1.77;;;0.50;;
18376;SDS011;9315;52.624;13.544;2022-09-09T16:54:20;3.78;;;1.00;;
18376;SDS011;9315;52.624;13.544;2022-09-09T16:56:49;4.32;;;1.65;;
18376;SDS011;9315;52.624;13.544;2022-09-09T16:59:17;3.58;;;1.08;;
18376;SDS011;9315;52.624;13.544;2022-09-09T17:01:50;4.75;;;0.95;;
18376;SDS011;9315;52.624;13.544;2022-09-09T17:04:19;4.75;;;1.00;;
18376;SDS011;9315;52.624;13.544;2022-09-09T17:06:54;2.65;;;0.80;;
18376;SDS011;9315;52.624;13.544;2022-09-09T17:09:24;3.88;;;0.85;;